createdAt,value
2023-05-23T00:02:01.953Z,100885.84
2023-05-23T00:04:30.823Z,100880.50
2023-05-23T00:06:59.064Z,100878.94
2023-05-23T00:09:28.198Z,100881.53
2023-05-23T00:11:55.781Z,100885.28
2023-05-23T00:14:23.656Z,100886.66
2023-05-23T00:16:51.759Z,100885.56
2023-05-23T00:19:19.679Z,100875.84
2023-05-23T00:21:49.581Z,100883.69
2023-05-23T00:24:18.789Z,100874.06
2023-05-23T00:26:48.197Z,100889.44
2023-05-23T00:29:16.877Z,100883.41
2023-05-23T00:31:46.510Z,100887.56
2023-05-23T00:34:14.667Z,100890.72
2023-05-23T00:36:44.372Z,100886.97
2023-05-23T00:39:19.182Z,100886.91
2023-05-23T00:41:52.156Z,100891.19
2023-05-23T00:44:21.378Z,100887.66
2023-05-23T00:46:52.532Z,100883.22
2023-05-23T00:49:21.055Z,100897.25
2023-05-23T00:51:49.766Z,100895.75
2023-05-23T00:54:19.413Z,100893.16
2023-05-23T00:56:48.310Z,100892.97
2023-05-23T00:59:17.604Z,100896.44
2023-05-23T01:01:47.180Z,100894.75
2023-05-23T01:04:16.764Z,100896.50
2023-05-23T01:06:47.077Z,100890.34
2023-05-23T01:09:15.648Z,100894.75
2023-05-23T01:11:47.322Z,100884.16
2023-05-23T01:14:25.299Z,100878.94
2023-05-23T01:16:57.244Z,100881.56
2023-05-23T01:19:58.413Z,100886.97
2023-05-23T01:22:35.209Z,100886.03
2023-05-23T01:25:10.920Z,100884.91
2023-05-23T01:27:52.461Z,100882.28
2023-05-23T01:30:21.273Z,100885.84
2023-05-23T01:32:50.106Z,100894.75
2023-05-23T01:35:21.294Z,100897.25
2023-05-23T01:37:51.235Z,100899.88
2023-05-23T01:40:19.084Z,100894.66
2023-05-23T01:42:48.263Z,100891.19
2023-05-23T01:45:16.361Z,100897.25
2023-05-23T01:47:44.775Z,100902.31
2023-05-23T01:50:13.324Z,100894.28
2023-05-23T01:52:41.274Z,100903.91
2023-05-23T01:55:12.015Z,100904.66
2023-05-23T01:57:40.246Z,100913.34
2023-05-23T02:00:12.236Z,100913.34
2023-05-23T02:02:40.244Z,100905.50
2023-05-23T02:05:08.432Z,100911.47
2023-05-23T02:07:36.337Z,100907.91
2023-05-23T02:10:05.070Z,100910.53
2023-05-23T02:12:32.856Z,100911.59
2023-05-23T02:15:03.358Z,100907.19
2023-05-23T02:17:32.633Z,100903.63
2023-05-23T02:20:00.504Z,100914.09
2023-05-23T02:22:28.253Z,100908.84
2023-05-23T02:24:55.978Z,100907.47
2023-05-23T02:27:23.953Z,100912.16
2023-05-23T02:29:51.720Z,100919.25
2023-05-23T02:32:19.453Z,100913.28
2023-05-23T02:34:50.296Z,100913.56
2023-05-23T02:37:18.278Z,100922.34
2023-05-23T02:39:45.983Z,100914.84
2023-05-23T02:42:13.759Z,100927.25
2023-05-23T02:44:41.540Z,100927.38
2023-05-23T02:47:09.292Z,100933.34
2023-05-23T02:49:37.044Z,100935.41
2023-05-23T02:52:06.677Z,100939.13
2023-05-23T02:54:34.524Z,100929.50
2023-05-23T02:57:02.288Z,100933.22
2023-05-23T02:59:29.999Z,100936.03
2023-05-23T03:01:57.836Z,100937.88
2023-05-23T03:04:25.676Z,100937.13
2023-05-23T03:06:54.401Z,100932.00
2023-05-23T03:09:23.596Z,100938.00
2023-05-23T03:11:51.427Z,100938.81
2023-05-23T03:14:19.273Z,100936.19
2023-05-23T03:16:49.595Z,100937.06
2023-05-23T03:19:17.420Z,100939.84
2023-05-23T03:21:45.283Z,100954.88
2023-05-23T03:24:13.101Z,100949.09
2023-05-23T03:26:42.188Z,100947.66
2023-05-23T03:29:10.957Z,100954.94
2023-05-23T03:31:38.951Z,100961.63
2023-05-23T03:34:06.711Z,100955.53
2023-05-23T03:36:35.845Z,100964.31
2023-05-23T03:39:03.739Z,100967.28
2023-05-23T03:41:31.488Z,100976.97
2023-05-23T03:44:00.820Z,100968.31
2023-05-23T03:46:28.636Z,100963.91
2023-05-23T03:48:56.504Z,100972.78
2023-05-23T03:51:24.372Z,100971.28
2023-05-23T03:53:52.171Z,100967.78
2023-05-23T03:56:19.953Z,100965.94
2023-05-23T03:58:47.729Z,100976.41
2023-05-23T04:01:16.848Z,100978.94
2023-05-23T04:03:44.540Z,100983.50
2023-05-23T04:06:14.285Z,100979.59
2023-05-23T04:08:43.591Z,100984.66
2023-05-23T04:11:11.156Z,100988.38
2023-05-23T04:13:39.020Z,100988.03
2023-05-23T04:16:07.699Z,100994.19
2023-05-23T04:18:39.121Z,101000.28
2023-05-23T04:21:07.144Z,101003.53
2023-05-23T04:23:35.002Z,100998.31
2023-05-23T04:26:02.740Z,100989.53
2023-05-23T04:28:30.492Z,101001.44
2023-05-23T04:30:58.546Z,101011.50
2023-05-23T04:33:28.314Z,101003.53
2023-05-23T04:35:57.546Z,100995.69
2023-05-23T04:38:25.466Z,100996.63
2023-05-23T04:40:54.115Z,101005.06
2023-05-23T04:43:21.998Z,101005.75
2023-05-23T04:45:51.623Z,101009.53
2023-05-23T04:48:21.611Z,101019.41
2023-05-23T04:50:51.221Z,101010.00
2023-05-23T04:53:20.435Z,101016.22
2023-05-23T04:55:48.341Z,101017.25
2023-05-23T04:58:16.320Z,101014.63
2023-05-23T05:00:44.566Z,101018.25
2023-05-23T05:03:12.654Z,101018.25
2023-05-23T05:05:40.742Z,101021.81
2023-05-23T05:08:08.520Z,101029.66
2023-05-23T05:10:37.750Z,101027.19
2023-05-23T05:13:05.559Z,101035.91
2023-05-23T05:15:33.617Z,101039.19
2023-05-23T05:18:01.416Z,101036.56
2023-05-23T05:20:29.325Z,101029.66
2023-05-23T05:22:58.256Z,101039.34
2023-05-23T05:25:27.482Z,101041.91
2023-05-23T05:27:56.672Z,101043.59
2023-05-23T05:30:24.767Z,101047.97
2023-05-23T05:32:52.569Z,101047.97
2023-05-23T05:35:21.102Z,101046.19
2023-05-23T05:37:48.860Z,101052.09
2023-05-23T05:40:16.786Z,101059.13
2023-05-23T05:42:44.588Z,101051.16
2023-05-23T05:45:13.844Z,101054.38
2023-05-23T05:47:44.821Z,101061.88
2023-05-23T05:50:12.960Z,101059.94
2023-05-23T05:52:40.803Z,101063.22
2023-05-23T05:55:11.286Z,101066.56
2023-05-23T05:57:39.361Z,101074.09
2023-05-23T06:00:12.807Z,101072.22
2023-05-23T06:02:42.563Z,101077.09
2023-05-23T06:05:12.483Z,101079.56
2023-05-23T06:07:40.644Z,101077.88
2023-05-23T06:10:09.334Z,101084.69
2023-05-23T06:12:37.282Z,101079.19
2023-05-23T06:15:05.707Z,101079.84
2023-05-23T06:17:33.587Z,101078.91
2023-05-23T06:20:04.108Z,101083.31
2023-05-23T06:22:32.085Z,101079.63
2023-05-23T06:24:59.994Z,101091.41
2023-05-23T06:27:27.793Z,101079.19
2023-05-23T06:29:55.631Z,101083.38
2023-05-23T06:32:23.618Z,101094.59
2023-05-23T06:34:51.435Z,101093.09
2023-05-23T06:37:20.559Z,101091.44
2023-05-23T06:39:48.150Z,101101.72
2023-05-23T06:42:16.530Z,101100.69
2023-05-23T06:44:44.332Z,101060.56
2023-05-23T06:47:12.127Z,101096.13
2023-05-23T06:49:39.864Z,101108.09
2023-05-23T06:52:07.652Z,101113.16
2023-05-23T06:54:36.759Z,101110.28
2023-05-23T06:57:04.712Z,101104.38
2023-05-23T06:59:32.450Z,101115.19
2023-05-23T07:02:00.232Z,101119.69
2023-05-23T07:04:28.059Z,101128.41
2023-05-23T07:06:55.863Z,101119.50
2023-05-23T07:09:23.816Z,101133.34
2023-05-23T07:11:53.039Z,101136.91
2023-05-23T07:14:20.878Z,101131.59
2023-05-23T07:16:48.659Z,101144.19
2023-05-23T07:19:16.598Z,101141.84
2023-05-23T07:21:44.445Z,101145.09
2023-05-23T07:24:12.198Z,101149.72
2023-05-23T07:26:40.115Z,101156.97
2023-05-23T07:29:09.236Z,101163.66
2023-05-23T07:31:36.969Z,101167.22
2023-05-23T07:34:04.975Z,101170.41
2023-05-23T07:36:34.243Z,101179.78
2023-05-23T07:39:02.375Z,101181.03
2023-05-23T07:41:30.185Z,101180.78
2023-05-23T07:43:57.974Z,101174.53
2023-05-23T07:46:27.204Z,101180.78
2023-05-23T07:48:55.473Z,101184.31
2023-05-23T07:51:23.239Z,101186.34
2023-05-23T07:53:51.048Z,101200.84
2023-05-23T07:56:19.906Z,101198.41
2023-05-23T07:58:47.678Z,101202.09
2023-05-23T08:01:15.519Z,101207.56
2023-05-23T08:03:47.064Z,101219.03
2023-05-23T08:06:14.974Z,101206.72
2023-05-23T08:08:43.750Z,101213.47
2023-05-23T08:11:11.616Z,101215.06
2023-05-23T08:13:39.466Z,101211.63
2023-05-23T08:16:07.453Z,101218.47
2023-05-23T08:18:36.327Z,101216.53
2023-05-23T08:21:07.224Z,101226.25
2023-05-23T08:23:35.148Z,101217.03
2023-05-23T08:26:02.973Z,101225.41
2023-05-23T08:28:30.763Z,101223.28
2023-05-23T08:31:00.898Z,101229.78
2023-05-23T08:33:31.697Z,101235.41
2023-05-23T08:35:59.509Z,101248.63
2023-05-23T08:38:28.924Z,101237.31
2023-05-23T08:40:58.981Z,101238.25
2023-05-23T08:43:27.037Z,101251.91
2023-05-23T08:45:55.313Z,101258.84
2023-05-23T08:48:24.081Z,101248.53
2023-05-23T08:50:52.304Z,101257.25
2023-05-23T08:53:22.354Z,101255.47
2023-05-23T08:55:52.282Z,101265.91
2023-05-23T08:58:22.632Z,101261.66
2023-05-23T09:00:51.346Z,101268.00
2023-05-23T09:03:20.076Z,101267.63
2023-05-23T09:05:48.296Z,101259.00
2023-05-23T09:08:16.386Z,101272.41
2023-05-23T09:10:44.297Z,101278.19
2023-05-23T09:13:13.477Z,101274.06
2023-05-23T09:15:48.589Z,101277.91
2023-05-23T09:18:16.525Z,101277.69
2023-05-23T09:20:46.128Z,101281.44
2023-05-23T09:23:13.972Z,101286.03
2023-05-23T09:25:47.762Z,101291.59
2023-05-23T09:28:17.023Z,101301.03
2023-05-23T09:30:44.813Z,101279.44
2023-05-23T09:33:15.364Z,101309.53
2023-05-23T09:35:46.195Z,101296.81
2023-05-23T09:38:14.039Z,101300.59
2023-05-23T09:40:46.195Z,101309.63
2023-05-23T09:43:13.985Z,101305.75
2023-05-23T09:45:43.135Z,101303.63
2023-05-23T09:48:13.274Z,101306.59
2023-05-23T09:50:41.394Z,101301.88
2023-05-23T09:53:09.343Z,101304.06
2023-05-23T09:55:37.115Z,101300.50
2023-05-23T09:58:05.610Z,101299.31
2023-05-23T10:00:33.651Z,101301.47
2023-05-23T10:03:10.976Z,101308.66
2023-05-23T10:05:41.179Z,101300.72
2023-05-23T10:08:12.243Z,101295.84
2023-05-23T10:11:10.604Z,101290.97
2023-05-23T10:13:38.623Z,101285.47
2023-05-23T10:16:10.230Z,101285.00
2023-05-23T10:18:44.355Z,101284.28
2023-05-23T10:21:14.242Z,101290.34
2023-05-23T10:23:44.666Z,101283.97
2023-05-23T10:26:12.816Z,101289.41
2023-05-23T10:28:41.811Z,101290.94
2023-05-23T10:31:09.501Z,101291.28
2023-05-23T10:33:42.582Z,101291.47
2023-05-23T10:36:11.903Z,101298.47
2023-05-23T10:38:42.714Z,101297.38
2023-05-23T10:41:12.726Z,101298.84
2023-05-23T10:43:46.811Z,101300.03
2023-05-23T10:46:15.111Z,101286.66
2023-05-23T10:48:45.285Z,101310.34
2023-05-23T10:51:14.552Z,101314.16
2023-05-23T10:53:43.954Z,101304.66
2023-05-23T10:56:12.915Z,101314.97
2023-05-23T10:58:40.851Z,101313.47
2023-05-23T11:01:09.531Z,101319.09
2023-05-23T11:03:39.267Z,101322.41
2023-05-23T11:06:09.077Z,101321.94
2023-05-23T11:08:48.426Z,101327.28
2023-05-23T11:11:16.868Z,101313.91
2023-05-23T11:14:00.436Z,101309.09
2023-05-23T11:16:30.455Z,101314.25
2023-05-23T11:19:25.549Z,101311.25
2023-05-23T11:21:58.480Z,101315.41
2023-05-23T11:24:50.128Z,101311.81
2023-05-23T11:27:20.171Z,101321.38
2023-05-23T11:30:00.869Z,101326.84
2023-05-23T11:32:32.422Z,101325.16
2023-05-23T11:35:01.549Z,101327.66
2023-05-23T11:37:31.424Z,101332.34
2023-05-23T11:39:59.516Z,101326.88
2023-05-23T11:42:27.349Z,101325.78
2023-05-23T11:44:55.414Z,101337.06
2023-05-23T11:47:23.255Z,101319.50
2023-05-23T11:49:51.088Z,101328.31
2023-05-23T11:52:18.920Z,101324.78
2023-05-23T11:54:48.084Z,101330.75
2023-05-23T11:57:15.921Z,101323.34
2023-05-23T11:59:43.767Z,101316.69
2023-05-23T12:02:11.667Z,101321.13
2023-05-23T12:04:42.451Z,101317.97
2023-05-23T12:07:10.345Z,101321.22
2023-05-23T12:09:44.730Z,101331.03
2023-05-23T12:12:14.246Z,101318.94
2023-05-23T12:14:44.813Z,101323.31
2023-05-23T12:17:13.809Z,101313.97
2023-05-23T12:19:46.719Z,101323.88
2023-05-23T12:22:14.485Z,101320.00
2023-05-23T12:24:47.554Z,101317.41
2023-05-23T12:27:18.607Z,101322.22
2023-05-23T12:29:52.307Z,101316.75
2023-05-23T12:32:20.161Z,101318.84
2023-05-23T12:34:48.029Z,101316.75
2023-05-23T12:37:20.194Z,101327.47
2023-05-23T12:39:48.712Z,101331.59
2023-05-23T12:42:17.913Z,101330.59
2023-05-23T12:44:46.168Z,101322.59
2023-05-23T12:47:15.102Z,101318.22
2023-05-23T12:49:44.801Z,101317.19
2023-05-23T12:52:12.644Z,101321.38
2023-05-23T12:54:40.450Z,101329.22
2023-05-23T12:57:08.245Z,101329.22
2023-05-23T12:59:37.378Z,101333.50
2023-05-23T13:02:05.220Z,101327.72
2023-05-23T13:04:33.246Z,101317.81
2023-05-23T13:07:01.074Z,101324.13
2023-05-23T13:09:28.900Z,101323.25
2023-05-23T13:11:56.853Z,101322.91
2023-05-23T13:14:24.614Z,101326.88
2023-05-23T13:16:53.827Z,101327.22
2023-05-23T13:19:21.710Z,101321.66
2023-05-23T13:21:50.060Z,101325.38
2023-05-23T13:24:18.005Z,101324.34
2023-05-23T13:26:45.889Z,101319.72
2023-05-23T13:29:14.781Z,101319.13
2023-05-23T13:31:42.608Z,101331.97
2023-05-23T13:34:11.823Z,101327.75
2023-05-23T13:36:39.672Z,101321.66
2023-05-23T13:39:07.771Z,101321.53
2023-05-23T13:41:35.618Z,101325.88
2023-05-23T13:44:04.137Z,101322.09
2023-05-23T13:46:31.989Z,101329.66
2023-05-23T13:48:59.892Z,101326.69
2023-05-23T13:51:29.135Z,101319.84
2023-05-23T13:53:56.977Z,101329.38
2023-05-23T13:56:25.472Z,101327.25
2023-05-23T13:58:53.500Z,101325.88
2023-05-23T14:01:21.448Z,101326.47
2023-05-23T14:03:49.270Z,101327.47
2023-05-23T14:06:17.136Z,101331.09
2023-05-23T14:08:46.462Z,101326.91
2023-05-23T14:11:14.333Z,101330.09
2023-05-23T14:13:42.118Z,101327.75
2023-05-23T14:16:09.975Z,101324.19
2023-05-23T14:18:37.854Z,101326.69
2023-05-23T14:21:06.201Z,101317.66
2023-05-23T14:23:33.980Z,101325.03
2023-05-23T14:26:03.267Z,101332.81
2023-05-23T14:28:31.413Z,101331.31
2023-05-23T14:30:59.301Z,101317.97
2023-05-23T14:33:27.489Z,101332.84
2023-05-23T14:35:55.344Z,101327.97
2023-05-23T14:38:23.352Z,101328.16
2023-05-23T14:40:51.171Z,101332.94
2023-05-23T14:43:20.399Z,101330.59
2023-05-23T14:45:48.284Z,101335.94
2023-05-23T14:48:16.213Z,101331.47
2023-05-23T14:50:44.017Z,101342.19
2023-05-23T14:53:11.918Z,101331.69
2023-05-23T14:55:39.878Z,101334.88
2023-05-23T14:58:07.865Z,101347.28
2023-05-23T15:00:37.063Z,101343.50
2023-05-23T15:03:05.036Z,101343.69
2023-05-23T15:05:33.032Z,101341.28
2023-05-23T15:08:01.414Z,101345.56
2023-05-23T15:10:29.208Z,101339.59
2023-05-23T15:12:57.343Z,101340.28
2023-05-23T15:15:27.021Z,101343.09
2023-05-23T15:17:56.317Z,101340.56
2023-05-23T15:20:24.183Z,101345.94
2023-05-23T15:22:51.948Z,101341.25
2023-05-23T15:25:30.317Z,101340.75
2023-05-23T15:28:06.805Z,101342.94
2023-05-23T15:30:36.253Z,101344.19
2023-05-23T15:33:07.400Z,101350.72
2023-05-23T15:35:35.255Z,101348.06
2023-05-23T15:38:02.997Z,101338.25
2023-05-23T15:40:31.058Z,101345.38
2023-05-23T15:42:58.816Z,101346.09
2023-05-23T15:45:26.628Z,101350.69
2023-05-23T15:47:54.479Z,101336.97
2023-05-23T15:50:23.678Z,101338.19
2023-05-23T15:52:51.460Z,101329.91
2023-05-23T15:55:19.474Z,101339.50
2023-05-23T15:57:47.251Z,101337.06
2023-05-23T16:00:16.412Z,101342.13
2023-05-23T16:02:44.338Z,101341.47
2023-05-23T16:05:12.123Z,101352.75
2023-05-23T16:07:41.287Z,101339.16
2023-05-23T16:10:09.839Z,101345.78
2023-05-23T16:12:37.623Z,101344.88
2023-05-23T16:15:06.082Z,101355.66
2023-05-23T16:17:33.841Z,101350.03
2023-05-23T16:20:03.028Z,101351.97
2023-05-23T16:22:31.164Z,101351.72
2023-05-23T16:25:00.353Z,101350.22
2023-05-23T16:27:28.196Z,101349.34
2023-05-23T16:29:55.960Z,101355.72
2023-05-23T16:32:23.789Z,101351.34
2023-05-23T16:34:54.496Z,101352.84
2023-05-23T16:37:22.729Z,101355.28
2023-05-23T16:39:50.632Z,101350.47
2023-05-23T16:42:19.776Z,101355.84
2023-05-23T16:44:50.339Z,101343.53
2023-05-23T16:47:18.246Z,101334.88
2023-05-23T16:49:46.049Z,101338.88
2023-05-23T16:52:13.804Z,101337.31
2023-05-23T16:54:43.615Z,101349.25
2023-05-23T16:57:11.675Z,101349.44
2023-05-23T16:59:41.860Z,101351.13
2023-05-23T17:02:11.535Z,101347.75
2023-05-23T17:04:39.317Z,101361.84
2023-05-23T17:07:08.581Z,101353.84
2023-05-23T17:09:39.412Z,101351.50
2023-05-23T17:12:07.886Z,101356.75
2023-05-23T17:14:35.677Z,101355.22
2023-05-23T17:17:05.430Z,101358.28
2023-05-23T17:19:33.346Z,101360.97
2023-05-23T17:22:01.160Z,101370.13
2023-05-23T17:24:28.993Z,101363.47
2023-05-23T17:26:56.849Z,101372.53
2023-05-23T17:29:24.796Z,101374.47
2023-05-23T17:31:57.537Z,101369.63
2023-05-23T17:34:27.306Z,101375.34
2023-05-23T17:36:55.317Z,101370.72
2023-05-23T17:39:23.549Z,101370.88
2023-05-23T17:41:51.351Z,101366.16
2023-05-23T17:44:19.605Z,101370.38
2023-05-23T17:46:47.357Z,101381.19
2023-05-23T17:49:15.246Z,101379.66
2023-05-23T17:51:44.376Z,101379.06
2023-05-23T17:54:11.954Z,101378.75
2023-05-23T17:56:40.312Z,101377.72
2023-05-23T17:59:08.422Z,101376.94
2023-05-23T18:01:37.567Z,101384.22
2023-05-23T18:04:05.688Z,101376.50
2023-05-23T18:06:33.535Z,101377.44
2023-05-23T18:09:02.660Z,101378.72
2023-05-23T18:11:30.403Z,101371.34
2023-05-23T18:13:58.181Z,101383.44
2023-05-23T18:16:26.004Z,101386.34
2023-05-23T18:18:53.831Z,101392.06
2023-05-23T18:21:23.730Z,101394.94
2023-05-23T18:23:51.569Z,101389.09
2023-05-23T18:26:21.362Z,101393.97
2023-05-23T18:28:49.143Z,101396.75
2023-05-23T18:31:16.989Z,101390.78
2023-05-23T18:33:44.935Z,101395.50
2023-05-23T18:36:12.745Z,101395.81
2023-05-23T18:38:41.633Z,101401.44
2023-05-23T18:41:14.574Z,101397.44
2023-05-23T18:43:44.176Z,101400.44
2023-05-23T18:46:12.009Z,101403.44
2023-05-23T18:48:40.728Z,101406.22
2023-05-23T18:51:08.519Z,101415.19
2023-05-23T18:53:36.440Z,101416.34
2023-05-23T18:56:04.290Z,101425.41
2023-05-23T18:58:32.464Z,101423.13
2023-05-23T19:01:03.962Z,101425.19
2023-05-23T19:03:33.533Z,101442.00
2023-05-23T19:06:03.271Z,101441.44
2023-05-23T19:08:31.719Z,101442.78
2023-05-23T19:10:59.518Z,101443.09
2023-05-23T19:13:27.335Z,101456.47
2023-05-23T19:15:55.233Z,101455.06
2023-05-23T19:18:24.444Z,101458.81
2023-05-23T19:20:53.170Z,101458.31
2023-05-23T19:23:21.005Z,101452.31
2023-05-23T19:25:48.827Z,101466.50
2023-05-23T19:28:16.984Z,101471.13
2023-05-23T19:30:45.062Z,101470.63
2023-05-23T19:33:12.891Z,101468.41
2023-05-23T19:35:42.388Z,101476.66
2023-05-23T19:38:10.182Z,101476.16
2023-05-23T19:40:38.029Z,101487.75
2023-05-23T19:43:05.868Z,101494.22
2023-05-23T19:45:33.643Z,101496.22
2023-05-23T19:48:01.845Z,101506.84
2023-05-23T19:50:29.684Z,101500.19
2023-05-23T19:52:58.885Z,101500.44
2023-05-23T19:55:26.502Z,101507.03
2023-05-23T19:57:54.342Z,101507.25
2023-05-23T20:00:22.437Z,101518.75
2023-05-23T20:02:50.527Z,101520.72
2023-05-23T20:05:18.412Z,101520.94
2023-05-23T20:07:46.250Z,101517.66
2023-05-23T20:10:16.771Z,101520.50
2023-05-23T20:12:44.613Z,101523.34
2023-05-23T20:15:14.557Z,101531.31
2023-05-23T20:17:42.519Z,101530.72
2023-05-23T20:20:11.646Z,101534.28
2023-05-23T20:22:39.576Z,101537.06
2023-05-23T20:25:08.312Z,101543.28
2023-05-23T20:27:37.469Z,101546.19
2023-05-23T20:30:06.238Z,101548.91
2023-05-23T20:32:34.102Z,101549.88
2023-05-23T20:35:02.018Z,101546.59
2023-05-23T20:37:30.351Z,101547.78
2023-05-23T20:39:58.103Z,101554.78
2023-05-23T20:42:26.707Z,101560.94
2023-05-23T20:44:56.963Z,101565.41
2023-05-23T20:47:25.724Z,101558.63
2023-05-23T20:49:53.648Z,101563.22
2023-05-23T20:52:22.913Z,101567.75
2023-05-23T20:54:52.409Z,101576.75
2023-05-23T20:57:20.388Z,101567.31
2023-05-23T20:59:49.321Z,101570.94
2023-05-23T21:02:18.555Z,101570.25
2023-05-23T21:04:46.476Z,101578.16
2023-05-23T21:07:14.406Z,101583.47
2023-05-23T21:09:42.201Z,101572.38
2023-05-23T21:12:11.520Z,101578.63
2023-05-23T21:14:39.478Z,101583.06
2023-05-23T21:17:07.377Z,101571.19
2023-05-23T21:19:36.751Z,101581.69
2023-05-23T21:22:04.912Z,101579.22
2023-05-23T21:24:32.780Z,101584.50
2023-05-23T21:27:01.699Z,101585.56
2023-05-23T21:29:29.594Z,101594.38
2023-05-23T21:31:57.553Z,101586.66
2023-05-23T21:34:25.424Z,101585.88
2023-05-23T21:36:54.617Z,101592.09
2023-05-23T21:39:22.182Z,101587.13
2023-05-23T21:41:49.989Z,101584.66
2023-05-23T21:44:18.902Z,101584.78
2023-05-23T21:46:48.836Z,101578.06
2023-05-23T21:49:16.845Z,101569.53
2023-05-23T21:51:44.669Z,101581.81
2023-05-23T21:54:13.860Z,101574.25
2023-05-23T21:56:41.520Z,101580.50
2023-05-23T21:59:09.549Z,101582.19
2023-05-23T22:01:37.406Z,101584.09
2023-05-23T22:04:05.455Z,101578.16
2023-05-23T22:06:33.588Z,101581.69
2023-05-23T22:09:01.738Z,101576.63
2023-05-23T22:11:33.948Z,101583.69
2023-05-23T22:14:02.179Z,101585.50
2023-05-23T22:16:32.842Z,101591.75
2023-05-23T22:19:02.105Z,101585.81
2023-05-23T22:21:29.883Z,101584.34
2023-05-23T22:23:57.933Z,101579.25
2023-05-23T22:26:25.759Z,101584.50
2023-05-23T22:28:54.896Z,101584.66
2023-05-23T22:31:24.135Z,101581.28
2023-05-23T22:33:52.228Z,101578.88
2023-05-23T22:36:20.042Z,101579.81
2023-05-23T22:38:47.821Z,101571.28
2023-05-23T22:41:15.853Z,101575.72
2023-05-23T22:43:43.728Z,101591.44
2023-05-23T22:46:12.979Z,101587.25
2023-05-23T22:48:40.797Z,101584.78
2023-05-23T22:51:12.410Z,101581.38
2023-05-23T22:53:41.176Z,101590.13
2023-05-23T22:56:09.096Z,101589.34
2023-05-23T22:58:36.901Z,101592.84
2023-05-23T23:01:04.840Z,101588.63
2023-05-23T23:03:34.065Z,101589.53
2023-05-23T23:06:01.812Z,101589.75
2023-05-23T23:08:29.598Z,101589.78
2023-05-23T23:10:57.357Z,101591.56
2023-05-23T23:13:25.131Z,101585.63
2023-05-23T23:15:52.898Z,101590.00
2023-05-23T23:18:20.913Z,101582.28
2023-05-23T23:20:50.108Z,101585.91
2023-05-23T23:23:17.682Z,101589.50
2023-05-23T23:25:50.037Z,101598.97
2023-05-23T23:28:18.337Z,101605.91
2023-05-23T23:30:46.143Z,101593.88
2023-05-23T23:33:14.613Z,101598.22
2023-05-23T23:35:45.537Z,101596.50
2023-05-23T23:38:14.764Z,101599.09
2023-05-23T23:40:44.452Z,101596.50
2023-05-23T23:43:12.392Z,101599.19
2023-05-23T23:45:40.198Z,101602.66
2023-05-23T23:48:08.101Z,101589.78
2023-05-23T23:50:35.940Z,101591.53
2023-05-23T23:53:04.457Z,101601.97
2023-05-23T23:55:33.610Z,101601.16
2023-05-23T23:58:01.401Z,101607.28
